sensor_id;sensor_type;location;lat;lon;timestamp;P1;durP1;ratioP1;P2;durP2;ratioP2
12332;SDS011;6232;48.094;11.288;2023-04-09T00:00:00;32.13;;;21.47;;
12332;SDS011;6232;48.094;11.288;2023-04-09T00:02:46;35.87;;;23.80;;
12332;SDS011;6232;48.094;11.288;2023-04-09T00:05:31;37.40;;;23.40;;
12332;SDS011;6232;48.094;11.288;2023-04-09T00:08:17;32.27;;;21.90;;
12332;SDS011;6232;48.094;11.288;2023-04-09T00:11:03;32.70;;;22.33;;
12332;SDS011;6232;48.094;11.288;2023-04-09T00:13:48;35.50;;;22.27;;
12332;SDS011;6232;48.094;11.288;2023-04-09T00:16:34;31.70;;;21.53;;
12332;SDS011;6232;48.094;11.288;2023-04-09T00:19:19;38.80;;;23.90;;
12332;SDS011;6232;48.094;11.288;2023-04-09T00:22:05;37.60;;;24.20;;
12332;SDS011;6232;48.094;11.288;2023-04-09T00:24:50;38.53;;;22.77;;
12332;SDS011;6232;48.094;11.288;2023-04-09T00:27:36;42.93;;;24.03;;
12332;SDS011;6232;48.094;11.288;2023-04-09T00:30:22;36.27;;;22.90;;
12332;SDS011;6232;48.094;11.288;2023-04-09T00:33:07;35.47;;;23.37;;
12332;SDS011;6232;48.094;11.288;2023-04-09T00:35:53;33.37;;;22.80;;
12332;SDS011;6232;48.094;11.288;2023-04-09T00:38:38;33.77;;;23.27;;
12332;SDS011;6232;48.094;11.288;2023-04-09T00:41:24;37.17;;;23.07;;
12332;SDS011;6232;48.094;11.288;2023-04-09T00:44:09;34.37;;;22.47;;
12332;SDS011;6232;48.094;11.288;2023-04-09T00:46:55;36.57;;;24.00;;
12332;SDS011;6232;48.094;11.288;2023-04-09T00:49:42;39.30;;;26.60;;
12332;SDS011;6232;48.094;11.288;2023-04-09T00:52:29;43.17;;;25.83;;
12332;SDS011;6232;48.094;11.288;2023-04-09T00:55:15;44.17;;;24.43;;
12332;SDS011;6232;48.094;11.288;2023-04-09T00:58:01;36.80;;;24.23;;
12332;SDS011;6232;48.094;11.288;2023-04-09T01:00:47;35.83;;;24.37;;
12332;SDS011;6232;48.094;11.288;2023-04-09T01:03:32;34.50;;;22.23;;
12332;SDS011;6232;48.094;11.288;2023-04-09T01:06:23;37.57;;;24.77;;
12332;SDS011;6232;48.094;11.288;2023-04-09T01:09:30;42.67;;;25.77;;
12332;SDS011;6232;48.094;11.288;2023-04-09T01:15:12;35.13;;;26.00;;
12332;SDS011;6232;48.094;11.288;2023-04-09T01:20:52;38.83;;;24.90;;
12332;SDS011;6232;48.094;11.288;2023-04-09T01:29:46;41.03;;;26.17;;
12332;SDS011;6232;48.094;11.288;2023-04-09T01:32:32;40.10;;;27.20;;
12332;SDS011;6232;48.094;11.288;2023-04-09T01:35:19;41.60;;;26.37;;
12332;SDS011;6232;48.094;11.288;2023-04-09T01:38:05;43.70;;;26.40;;
12332;SDS011;6232;48.094;11.288;2023-04-09T01:40:51;39.37;;;24.57;;
12332;SDS011;6232;48.094;11.288;2023-04-09T01:43:38;39.03;;;26.30;;
12332;SDS011;6232;48.094;11.288;2023-04-09T01:46:24;45.90;;;26.97;;
12332;SDS011;6232;48.094;11.288;2023-04-09T01:49:10;37.60;;;25.57;;
12332;SDS011;6232;48.094;11.288;2023-04-09T01:51:56;42.30;;;26.53;;
12332;SDS011;6232;48.094;11.288;2023-04-09T01:54:41;35.63;;;25.13;;
12332;SDS011;6232;48.094;11.288;2023-04-09T01:57:27;35.00;;;24.63;;
12332;SDS011;6232;48.094;11.288;2023-04-09T02:00:13;37.53;;;25.33;;
12332;SDS011;6232;48.094;11.288;2023-04-09T02:09:02;33.80;;;26.23;;
12332;SDS011;6232;48.094;11.288;2023-04-09T02:11:51;32.30;;;21.90;;
12332;SDS011;6232;48.094;11.288;2023-04-09T02:14:37;40.60;;;26.47;;
12332;SDS011;6232;48.094;11.288;2023-04-09T02:17:24;50.60;;;26.23;;
12332;SDS011;6232;48.094;11.288;2023-04-09T02:20:10;32.90;;;25.00;;
12332;SDS011;6232;48.094;11.288;2023-04-09T02:22:56;38.57;;;26.00;;
12332;SDS011;6232;48.094;11.288;2023-04-09T02:25:42;37.90;;;26.50;;
12332;SDS011;6232;48.094;11.288;2023-04-09T02:28:28;35.77;;;25.60;;
12332;SDS011;6232;48.094;11.288;2023-04-09T02:31:13;43.03;;;25.80;;
12332;SDS011;6232;48.094;11.288;2023-04-09T02:33:59;47.17;;;26.67;;
12332;SDS011;6232;48.094;11.288;2023-04-09T02:36:44;38.80;;;26.33;;
12332;SDS011;6232;48.094;11.288;2023-04-09T02:39:30;38.47;;;26.10;;
12332;SDS011;6232;48.094;11.288;2023-04-09T02:42:15;40.70;;;28.00;;
12332;SDS011;6232;48.094;11.288;2023-04-09T02:45:01;47.00;;;25.60;;
12332;SDS011;6232;48.094;11.288;2023-04-09T02:47:47;36.77;;;26.00;;
12332;SDS011;6232;48.094;11.288;2023-04-09T02:50:32;38.20;;;25.60;;
12332;SDS011;6232;48.094;11.288;2023-04-09T02:53:18;34.47;;;24.23;;
12332;SDS011;6232;48.094;11.288;2023-04-09T02:56:05;38.00;;;26.07;;
12332;SDS011;6232;48.094;11.288;2023-04-09T02:58:51;37.63;;;25.70;;
12332;SDS011;6232;48.094;11.288;2023-04-09T03:01:38;37.43;;;24.93;;
12332;SDS011;6232;48.094;11.288;2023-04-09T03:04:23;43.80;;;27.77;;
12332;SDS011;6232;48.094;11.288;2023-04-09T03:07:09;39.37;;;26.50;;
12332;SDS011;6232;48.094;11.288;2023-04-09T03:09:54;43.70;;;26.13;;
12332;SDS011;6232;48.094;11.288;2023-04-09T03:12:40;36.93;;;25.40;;
12332;SDS011;6232;48.094;11.288;2023-04-09T03:15:28;42.70;;;25.50;;
12332;SDS011;6232;48.094;11.288;2023-04-09T03:18:14;35.33;;;24.50;;
12332;SDS011;6232;48.094;11.288;2023-04-09T03:21:03;34.23;;;24.17;;
12332;SDS011;6232;48.094;11.288;2023-04-09T03:23:48;38.33;;;25.57;;
12332;SDS011;6232;48.094;11.288;2023-04-09T03:26:34;43.27;;;27.03;;
12332;SDS011;6232;48.094;11.288;2023-04-09T03:29:22;36.53;;;25.20;;
12332;SDS011;6232;48.094;11.288;2023-04-09T03:32:08;43.60;;;27.63;;
12332;SDS011;6232;48.094;11.288;2023-04-09T03:34:53;40.50;;;27.60;;
12332;SDS011;6232;48.094;11.288;2023-04-09T03:37:39;44.40;;;27.57;;
12332;SDS011;6232;48.094;11.288;2023-04-09T03:40:25;37.70;;;27.00;;
12332;SDS011;6232;48.094;11.288;2023-04-09T03:43:10;43.00;;;27.80;;
12332;SDS011;6232;48.094;11.288;2023-04-09T03:45:56;42.10;;;28.10;;
12332;SDS011;6232;48.094;11.288;2023-04-09T03:48:41;39.37;;;28.53;;
12332;SDS011;6232;48.094;11.288;2023-04-09T03:51:28;38.20;;;27.50;;
12332;SDS011;6232;48.094;11.288;2023-04-09T03:54:14;43.37;;;28.30;;
12332;SDS011;6232;48.094;11.288;2023-04-09T03:56:59;43.80;;;27.17;;
12332;SDS011;6232;48.094;11.288;2023-04-09T03:59:45;44.40;;;27.53;;
12332;SDS011;6232;48.094;11.288;2023-04-09T04:02:31;39.10;;;26.30;;
12332;SDS011;6232;48.094;11.288;2023-04-09T04:05:17;37.47;;;25.27;;
12332;SDS011;6232;48.094;11.288;2023-04-09T04:08:03;38.60;;;25.97;;
12332;SDS011;6232;48.094;11.288;2023-04-09T04:10:48;39.83;;;26.00;;
12332;SDS011;6232;48.094;11.288;2023-04-09T04:13:34;33.77;;;24.03;;
12332;SDS011;6232;48.094;11.288;2023-04-09T04:16:20;41.17;;;28.80;;
12332;SDS011;6232;48.094;11.288;2023-04-09T04:19:05;37.27;;;26.27;;
12332;SDS011;6232;48.094;11.288;2023-04-09T04:21:51;42.53;;;28.10;;
12332;SDS011;6232;48.094;11.288;2023-04-09T04:24:37;36.60;;;27.37;;
12332;SDS011;6232;48.094;11.288;2023-04-09T04:27:22;37.20;;;25.43;;
12332;SDS011;6232;48.094;11.288;2023-04-09T04:30:08;35.90;;;25.10;;
12332;SDS011;6232;48.094;11.288;2023-04-09T04:32:53;32.97;;;24.83;;
12332;SDS011;6232;48.094;11.288;2023-04-09T04:35:39;41.23;;;26.30;;
12332;SDS011;6232;48.094;11.288;2023-04-09T04:38:24;43.33;;;25.70;;
12332;SDS011;6232;48.094;11.288;2023-04-09T04:41:11;43.70;;;23.73;;
12332;SDS011;6232;48.094;11.288;2023-04-09T04:43:56;33.50;;;23.10;;
12332;SDS011;6232;48.094;11.288;2023-04-09T04:46:42;38.83;;;24.00;;
12332;SDS011;6232;48.094;11.288;2023-04-09T04:49:27;36.37;;;24.60;;
12332;SDS011;6232;48.094;11.288;2023-04-09T04:52:13;39.60;;;25.87;;
12332;SDS011;6232;48.094;11.288;2023-04-09T04:54:59;42.23;;;26.63;;
12332;SDS011;6232;48.094;11.288;2023-04-09T04:57:44;33.63;;;24.50;;
12332;SDS011;6232;48.094;11.288;2023-04-09T05:00:30;31.57;;;21.70;;
12332;SDS011;6232;48.094;11.288;2023-04-09T05:03:15;32.10;;;22.67;;
12332;SDS011;6232;48.094;11.288;2023-04-09T05:06:01;31.77;;;23.37;;
12332;SDS011;6232;48.094;11.288;2023-04-09T05:08:47;35.00;;;23.70;;
12332;SDS011;6232;48.094;11.288;2023-04-09T05:11:32;34.70;;;23.10;;
12332;SDS011;6232;48.094;11.288;2023-04-09T05:14:18;36.37;;;23.20;;
12332;SDS011;6232;48.094;11.288;2023-04-09T05:17:05;36.80;;;22.77;;
12332;SDS011;6232;48.094;11.288;2023-04-09T05:19:51;38.07;;;23.10;;
12332;SDS011;6232;48.094;11.288;2023-04-09T05:22:37;37.47;;;23.87;;
12332;SDS011;6232;48.094;11.288;2023-04-09T05:25:22;39.60;;;22.53;;
12332;SDS011;6232;48.094;11.288;2023-04-09T05:28:08;39.83;;;24.70;;
12332;SDS011;6232;48.094;11.288;2023-04-09T05:30:55;37.27;;;24.90;;
12332;SDS011;6232;48.094;11.288;2023-04-09T05:33:41;34.37;;;22.00;;
12332;SDS011;6232;48.094;11.288;2023-04-09T05:36:26;36.63;;;23.77;;
12332;SDS011;6232;48.094;11.288;2023-04-09T05:39:12;42.23;;;23.23;;
12332;SDS011;6232;48.094;11.288;2023-04-09T05:41:57;37.23;;;23.87;;
12332;SDS011;6232;48.094;11.288;2023-04-09T05:44:43;34.17;;;22.57;;
12332;SDS011;6232;48.094;11.288;2023-04-09T05:47:28;37.77;;;24.70;;
12332;SDS011;6232;48.094;11.288;2023-04-09T05:50:14;39.50;;;23.37;;
12332;SDS011;6232;48.094;11.288;2023-04-09T05:53:00;33.17;;;20.80;;
12332;SDS011;6232;48.094;11.288;2023-04-09T05:55:46;29.23;;;20.30;;
12332;SDS011;6232;48.094;11.288;2023-04-09T05:58:33;35.70;;;20.13;;
12332;SDS011;6232;48.094;11.288;2023-04-09T06:01:19;33.10;;;18.60;;
12332;SDS011;6232;48.094;11.288;2023-04-09T06:04:04;33.53;;;19.97;;
12332;SDS011;6232;48.094;11.288;2023-04-09T06:06:50;28.97;;;21.17;;
12332;SDS011;6232;48.094;11.288;2023-04-09T06:09:36;34.57;;;21.17;;
12332;SDS011;6232;48.094;11.288;2023-04-09T06:12:22;29.17;;;17.27;;
12332;SDS011;6232;48.094;11.288;2023-04-09T06:15:07;33.33;;;18.63;;
12332;SDS011;6232;48.094;11.288;2023-04-09T06:17:53;38.70;;;19.07;;
12332;SDS011;6232;48.094;11.288;2023-04-09T06:20:39;28.90;;;17.70;;
12332;SDS011;6232;48.094;11.288;2023-04-09T06:23:24;30.23;;;20.30;;
12332;SDS011;6232;48.094;11.288;2023-04-09T06:26:10;34.50;;;20.10;;
12332;SDS011;6232;48.094;11.288;2023-04-09T06:28:55;29.40;;;19.10;;
12332;SDS011;6232;48.094;11.288;2023-04-09T06:31:41;30.60;;;19.40;;
12332;SDS011;6232;48.094;11.288;2023-04-09T06:34:26;32.33;;;19.00;;
12332;SDS011;6232;48.094;11.288;2023-04-09T06:37:12;32.80;;;18.17;;
12332;SDS011;6232;48.094;11.288;2023-04-09T06:39:58;27.23;;;18.10;;
12332;SDS011;6232;48.094;11.288;2023-04-09T06:42:43;24.40;;;16.67;;
12332;SDS011;6232;48.094;11.288;2023-04-09T06:45:29;26.67;;;18.00;;
12332;SDS011;6232;48.094;11.288;2023-04-09T06:48:15;24.53;;;16.50;;
12332;SDS011;6232;48.094;11.288;2023-04-09T06:51:01;28.23;;;17.20;;
12332;SDS011;6232;48.094;11.288;2023-04-09T06:53:46;21.70;;;15.23;;
12332;SDS011;6232;48.094;11.288;2023-04-09T06:56:32;23.20;;;15.80;;
12332;SDS011;6232;48.094;11.288;2023-04-09T06:59:18;21.10;;;14.40;;
12332;SDS011;6232;48.094;11.288;2023-04-09T07:02:04;18.73;;;13.17;;
12332;SDS011;6232;48.094;11.288;2023-04-09T07:04:49;16.60;;;11.50;;
12332;SDS011;6232;48.094;11.288;2023-04-09T07:07:35;18.43;;;13.40;;
12332;SDS011;6232;48.094;11.288;2023-04-09T07:10:20;18.53;;;14.37;;
12332;SDS011;6232;48.094;11.288;2023-04-09T07:13:06;19.63;;;13.07;;
12332;SDS011;6232;48.094;11.288;2023-04-09T07:15:51;14.30;;;11.47;;
12332;SDS011;6232;48.094;11.288;2023-04-09T07:18:37;17.50;;;11.30;;
12332;SDS011;6232;48.094;11.288;2023-04-09T07:21:24;15.57;;;11.27;;
12332;SDS011;6232;48.094;11.288;2023-04-09T07:24:10;15.87;;;11.03;;
12332;SDS011;6232;48.094;11.288;2023-04-09T07:26:56;17.00;;;10.67;;
12332;SDS011;6232;48.094;11.288;2023-04-09T07:29:43;17.00;;;10.70;;
12332;SDS011;6232;48.094;11.288;2023-04-09T07:32:28;20.80;;;10.40;;
12332;SDS011;6232;48.094;11.288;2023-04-09T07:35:14;11.23;;;8.47;;
12332;SDS011;6232;48.094;11.288;2023-04-09T07:37:59;14.13;;;10.03;;
12332;SDS011;6232;48.094;11.288;2023-04-09T07:40:45;15.37;;;9.50;;
12332;SDS011;6232;48.094;11.288;2023-04-09T07:43:31;10.97;;;9.07;;
12332;SDS011;6232;48.094;11.288;2023-04-09T07:46:20;14.83;;;9.57;;
12332;SDS011;6232;48.094;11.288;2023-04-09T07:49:08;13.17;;;10.00;;
12332;SDS011;6232;48.094;11.288;2023-04-09T07:51:54;12.37;;;9.47;;
12332;SDS011;6232;48.094;11.288;2023-04-09T07:54:39;12.20;;;9.60;;
12332;SDS011;6232;48.094;11.288;2023-04-09T07:57:25;11.40;;;8.57;;
12332;SDS011;6232;48.094;11.288;2023-04-09T08:00:10;11.37;;;8.90;;
12332;SDS011;6232;48.094;11.288;2023-04-09T08:02:56;11.07;;;9.10;;
12332;SDS011;6232;48.094;11.288;2023-04-09T08:05:42;10.07;;;7.83;;
12332;SDS011;6232;48.094;11.288;2023-04-09T08:08:28;10.13;;;8.60;;
12332;SDS011;6232;48.094;11.288;2023-04-09T08:11:13;10.60;;;7.93;;
12332;SDS011;6232;48.094;11.288;2023-04-09T08:13:59;11.43;;;8.67;;
12332;SDS011;6232;48.094;11.288;2023-04-09T08:16:48;11.83;;;8.37;;
12332;SDS011;6232;48.094;11.288;2023-04-09T08:19:34;10.53;;;8.10;;
12332;SDS011;6232;48.094;11.288;2023-04-09T08:22:20;9.03;;;8.13;;
12332;SDS011;6232;48.094;11.288;2023-04-09T08:25:06;10.00;;;7.97;;
12332;SDS011;6232;48.094;11.288;2023-04-09T08:27:51;8.43;;;7.53;;
12332;SDS011;6232;48.094;11.288;2023-04-09T08:30:37;7.70;;;6.80;;
12332;SDS011;6232;48.094;11.288;2023-04-09T08:33:23;9.10;;;7.70;;
12332;SDS011;6232;48.094;11.288;2023-04-09T08:36:08;13.63;;;8.70;;
12332;SDS011;6232;48.094;11.288;2023-04-09T08:38:55;10.83;;;7.60;;
12332;SDS011;6232;48.094;11.288;2023-04-09T08:41:41;8.33;;;6.90;;
12332;SDS011;6232;48.094;11.288;2023-04-09T08:44:30;8.67;;;7.10;;
12332;SDS011;6232;48.094;11.288;2023-04-09T08:47:16;7.47;;;6.47;;
12332;SDS011;6232;48.094;11.288;2023-04-09T08:50:02;7.33;;;6.60;;
12332;SDS011;6232;48.094;11.288;2023-04-09T08:52:48;8.73;;;7.00;;
12332;SDS011;6232;48.094;11.288;2023-04-09T08:55:34;7.60;;;6.90;;
12332;SDS011;6232;48.094;11.288;2023-04-09T08:58:21;6.93;;;6.07;;
12332;SDS011;6232;48.094;11.288;2023-04-09T09:01:17;7.60;;;6.60;;
12332;SDS011;6232;48.094;11.288;2023-04-09T09:04:03;6.57;;;5.90;;
12332;SDS011;6232;48.094;11.288;2023-04-09T09:06:49;6.97;;;6.20;;
12332;SDS011;6232;48.094;11.288;2023-04-09T09:09:48;7.67;;;6.87;;
12332;SDS011;6232;48.094;11.288;2023-04-09T09:15:27;6.30;;;5.70;;
12332;SDS011;6232;48.094;11.288;2023-04-09T09:18:12;7.53;;;6.83;;
12332;SDS011;6232;48.094;11.288;2023-04-09T09:21:11;7.80;;;7.00;;
12332;SDS011;6232;48.094;11.288;2023-04-09T09:23:57;8.00;;;7.20;;
12332;SDS011;6232;48.094;11.288;2023-04-09T09:26:43;8.10;;;7.27;;
12332;SDS011;6232;48.094;11.288;2023-04-09T09:29:28;7.93;;;6.87;;
12332;SDS011;6232;48.094;11.288;2023-04-09T09:32:14;7.73;;;7.03;;
12332;SDS011;6232;48.094;11.288;2023-04-09T09:35:01;7.10;;;6.40;;
12332;SDS011;6232;48.094;11.288;2023-04-09T09:37:47;7.10;;;6.50;;
12332;SDS011;6232;48.094;11.288;2023-04-09T09:40:44;8.70;;;7.87;;
12332;SDS011;6232;48.094;11.288;2023-04-09T09:43:39;8.40;;;7.60;;
12332;SDS011;6232;48.094;11.288;2023-04-09T09:46:24;8.87;;;7.97;;
12332;SDS011;6232;48.094;11.288;2023-04-09T09:49:10;8.73;;;7.40;;
12332;SDS011;6232;48.094;11.288;2023-04-09T09:51:56;9.87;;;7.30;;
12332;SDS011;6232;48.094;11.288;2023-04-09T09:54:46;8.97;;;8.07;;
12332;SDS011;6232;48.094;11.288;2023-04-09T09:57:32;8.47;;;7.57;;
12332;SDS011;6232;48.094;11.288;2023-04-09T10:00:19;9.27;;;8.27;;
12332;SDS011;6232;48.094;11.288;2023-04-09T10:03:11;9.90;;;7.77;;
12332;SDS011;6232;48.094;11.288;2023-04-09T10:05:57;8.53;;;7.67;;
12332;SDS011;6232;48.094;11.288;2023-04-09T10:08:43;9.00;;;8.03;;
12332;SDS011;6232;48.094;11.288;2023-04-09T10:11:30;8.70;;;7.33;;
12332;SDS011;6232;48.094;11.288;2023-04-09T10:14:17;8.80;;;7.93;;
12332;SDS011;6232;48.094;11.288;2023-04-09T10:17:03;9.27;;;8.03;;
12332;SDS011;6232;48.094;11.288;2023-04-09T10:20:00;8.97;;;7.20;;
12332;SDS011;6232;48.094;11.288;2023-04-09T10:22:49;9.10;;;7.97;;
12332;SDS011;6232;48.094;11.288;2023-04-09T10:25:36;9.70;;;8.53;;
12332;SDS011;6232;48.094;11.288;2023-04-09T10:28:21;7.53;;;6.77;;
12332;SDS011;6232;48.094;11.288;2023-04-09T10:31:07;8.87;;;7.90;;
12332;SDS011;6232;48.094;11.288;2023-04-09T10:33:53;10.00;;;8.93;;
12332;SDS011;6232;48.094;11.288;2023-04-09T10:36:38;9.13;;;8.23;;
12332;SDS011;6232;48.094;11.288;2023-04-09T10:39:27;7.63;;;6.93;;
12332;SDS011;6232;48.094;11.288;2023-04-09T10:42:14;7.90;;;7.10;;
12332;SDS011;6232;48.094;11.288;2023-04-09T10:45:09;8.37;;;7.50;;
12332;SDS011;6232;48.094;11.288;2023-04-09T10:47:55;9.23;;;8.20;;
12332;SDS011;6232;48.094;11.288;2023-04-09T10:50:43;9.40;;;7.77;;
12332;SDS011;6232;48.094;11.288;2023-04-09T10:53:29;9.90;;;8.83;;
12332;SDS011;6232;48.094;11.288;2023-04-09T10:56:16;11.17;;;9.93;;
12332;SDS011;6232;48.094;11.288;2023-04-09T10:59:01;9.83;;;8.80;;
12332;SDS011;6232;48.094;11.288;2023-04-09T11:01:51;9.60;;;8.53;;
12332;SDS011;6232;48.094;11.288;2023-04-09T11:04:38;10.10;;;8.83;;
12332;SDS011;6232;48.094;11.288;2023-04-09T11:07:26;16.30;;;9.33;;
12332;SDS011;6232;48.094;11.288;2023-04-09T11:10:12;9.33;;;8.37;;
12332;SDS011;6232;48.094;11.288;2023-04-09T11:12:57;11.07;;;8.03;;
12332;SDS011;6232;48.094;11.288;2023-04-09T11:15:43;9.33;;;8.23;;
12332;SDS011;6232;48.094;11.288;2023-04-09T11:18:29;9.00;;;8.10;;
12332;SDS011;6232;48.094;11.288;2023-04-09T11:21:16;8.90;;;7.53;;
12332;SDS011;6232;48.094;11.288;2023-04-09T11:24:01;9.90;;;8.43;;
12332;SDS011;6232;48.094;11.288;2023-04-09T11:26:47;10.87;;;9.47;;
12332;SDS011;6232;48.094;11.288;2023-04-09T11:29:33;10.93;;;8.90;;
12332;SDS011;6232;48.094;11.288;2023-04-09T11:32:19;9.70;;;8.50;;
12332;SDS011;6232;48.094;11.288;2023-04-09T11:35:09;10.73;;;9.57;;
12332;SDS011;6232;48.094;11.288;2023-04-09T11:37:57;9.17;;;8.10;;
12332;SDS011;6232;48.094;11.288;2023-04-09T11:40:44;10.70;;;8.87;;
12332;SDS011;6232;48.094;11.288;2023-04-09T11:43:34;11.60;;;9.37;;
12332;SDS011;6232;48.094;11.288;2023-04-09T11:46:20;14.33;;;9.90;;
12332;SDS011;6232;48.094;11.288;2023-04-09T11:49:10;10.97;;;9.03;;
12332;SDS011;6232;48.094;11.288;2023-04-09T11:51:55;9.97;;;8.77;;
12332;SDS011;6232;48.094;11.288;2023-04-09T11:54:47;11.53;;;10.20;;
12332;SDS011;6232;48.094;11.288;2023-04-09T12:00:21;11.50;;;8.93;;
12332;SDS011;6232;48.094;11.288;2023-04-09T12:03:09;9.50;;;8.40;;
12332;SDS011;6232;48.094;11.288;2023-04-09T12:05:54;9.80;;;8.77;;
12332;SDS011;6232;48.094;11.288;2023-04-09T12:08:40;10.00;;;9.00;;
12332;SDS011;6232;48.094;11.288;2023-04-09T12:11:26;10.17;;;9.07;;
12332;SDS011;6232;48.094;11.288;2023-04-09T12:14:13;11.47;;;10.30;;
12332;SDS011;6232;48.094;11.288;2023-04-09T12:16:59;10.33;;;9.23;;
12332;SDS011;6232;48.094;11.288;2023-04-09T12:19:44;9.97;;;8.90;;
12332;SDS011;6232;48.094;11.288;2023-04-09T12:22:32;10.00;;;8.67;;
12332;SDS011;6232;48.094;11.288;2023-04-09T12:25:18;9.63;;;8.57;;
12332;SDS011;6232;48.094;11.288;2023-04-09T12:28:04;9.40;;;8.50;;
12332;SDS011;6232;48.094;11.288;2023-04-09T12:30:50;10.97;;;9.17;;
12332;SDS011;6232;48.094;11.288;2023-04-09T12:33:36;12.07;;;10.00;;
12332;SDS011;6232;48.094;11.288;2023-04-09T12:36:23;13.00;;;9.60;;
12332;SDS011;6232;48.094;11.288;2023-04-09T12:39:09;12.60;;;10.90;;
12332;SDS011;6232;48.094;11.288;2023-04-09T12:41:54;13.40;;;10.53;;
12332;SDS011;6232;48.094;11.288;2023-04-09T12:44:40;10.30;;;9.30;;
12332;SDS011;6232;48.094;11.288;2023-04-09T12:47:26;13.83;;;9.80;;
12332;SDS011;6232;48.094;11.288;2023-04-09T12:50:12;11.07;;;9.30;;
12332;SDS011;6232;48.094;11.288;2023-04-09T12:52:59;11.70;;;10.37;;
12332;SDS011;6232;48.094;11.288;2023-04-09T12:55:44;11.43;;;10.07;;
12332;SDS011;6232;48.094;11.288;2023-04-09T12:58:30;12.40;;;10.47;;
12332;SDS011;6232;48.094;11.288;2023-04-09T13:01:15;11.30;;;10.10;;
12332;SDS011;6232;48.094;11.288;2023-04-09T13:04:01;12.30;;;10.00;;
12332;SDS011;6232;48.094;11.288;2023-04-09T13:06:47;12.20;;;9.97;;
12332;SDS011;6232;48.094;11.288;2023-04-09T13:09:32;15.03;;;11.30;;
12332;SDS011;6232;48.094;11.288;2023-04-09T13:12:19;12.67;;;10.80;;
12332;SDS011;6232;48.094;11.288;2023-04-09T13:15:05;13.67;;;10.43;;
12332;SDS011;6232;48.094;11.288;2023-04-09T13:17:51;11.37;;;9.43;;
12332;SDS011;6232;48.094;11.288;2023-04-09T13:20:37;10.73;;;9.60;;
12332;SDS011;6232;48.094;11.288;2023-04-09T13:23:22;11.43;;;9.47;;
12332;SDS011;6232;48.094;11.288;2023-04-09T13:26:08;11.03;;;9.50;;
12332;SDS011;6232;48.094;11.288;2023-04-09T13:28:53;12.40;;;9.90;;
12332;SDS011;6232;48.094;11.288;2023-04-09T13:31:39;9.80;;;8.80;;
12332;SDS011;6232;48.094;11.288;2023-04-09T13:34:24;11.33;;;9.53;;
12332;SDS011;6232;48.094;11.288;2023-04-09T13:37:10;9.90;;;8.90;;
12332;SDS011;6232;48.094;11.288;2023-04-09T13:39:56;10.40;;;9.13;;
12332;SDS011;6232;48.094;11.288;2023-04-09T13:42:41;8.90;;;8.00;;
12332;SDS011;6232;48.094;11.288;2023-04-09T13:45:27;12.73;;;10.37;;
12332;SDS011;6232;48.094;11.288;2023-04-09T13:48:12;11.67;;;10.20;;
12332;SDS011;6232;48.094;11.288;2023-04-09T13:50:58;10.03;;;8.87;;
12332;SDS011;6232;48.094;11.288;2023-04-09T13:53:44;12.50;;;10.00;;
12332;SDS011;6232;48.094;11.288;2023-04-09T13:56:30;11.97;;;9.53;;
12332;SDS011;6232;48.094;11.288;2023-04-09T13:59:15;12.83;;;10.10;;
12332;SDS011;6232;48.094;11.288;2023-04-09T14:02:01;11.73;;;8.80;;
12332;SDS011;6232;48.094;11.288;2023-04-09T14:04:46;10.80;;;8.60;;
12332;SDS011;6232;48.094;11.288;2023-04-09T14:07:32;10.90;;;8.80;;
12332;SDS011;6232;48.094;11.288;2023-04-09T14:10:17;11.03;;;9.37;;
12332;SDS011;6232;48.094;11.288;2023-04-09T14:13:03;14.53;;;9.63;;
12332;SDS011;6232;48.094;11.288;2023-04-09T14:15:50;13.30;;;10.50;;
12332;SDS011;6232;48.094;11.288;2023-04-09T14:18:36;12.23;;;9.90;;
12332;SDS011;6232;48.094;11.288;2023-04-09T14:21:22;14.27;;;11.17;;
12332;SDS011;6232;48.094;11.288;2023-04-09T14:24:08;13.50;;;10.77;;
12332;SDS011;6232;48.094;11.288;2023-04-09T14:26:53;14.97;;;11.07;;
12332;SDS011;6232;48.094;11.288;2023-04-09T14:29:39;12.50;;;10.10;;
12332;SDS011;6232;48.094;11.288;2023-04-09T14:32:24;13.20;;;9.67;;
12332;SDS011;6232;48.094;11.288;2023-04-09T14:35:10;11.73;;;8.10;;
12332;SDS011;6232;48.094;11.288;2023-04-09T14:37:55;11.93;;;8.90;;
12332;SDS011;6232;48.094;11.288;2023-04-09T14:40:41;9.90;;;8.37;;
12332;SDS011;6232;48.094;11.288;2023-04-09T14:43:27;13.23;;;9.70;;
12332;SDS011;6232;48.094;11.288;2023-04-09T14:46:12;10.67;;;9.50;;
12332;SDS011;6232;48.094;11.288;2023-04-09T14:48:58;8.80;;;7.90;;
12332;SDS011;6232;48.094;11.288;2023-04-09T14:51:43;7.80;;;7.00;;
12332;SDS011;6232;48.094;11.288;2023-04-09T14:54:29;6.57;;;5.97;;
12332;SDS011;6232;48.094;11.288;2023-04-09T14:57:15;9.60;;;8.70;;
12332;SDS011;6232;48.094;11.288;2023-04-09T15:00:01;10.23;;;9.10;;
12332;SDS011;6232;48.094;11.288;2023-04-09T15:02:47;10.80;;;9.80;;
12332;SDS011;6232;48.094;11.288;2023-04-09T15:05:33;9.17;;;8.30;;
12332;SDS011;6232;48.094;11.288;2023-04-09T15:08:18;8.90;;;7.87;;
12332;SDS011;6232;48.094;11.288;2023-04-09T15:11:04;7.90;;;7.00;;
12332;SDS011;6232;48.094;11.288;2023-04-09T15:13:50;7.93;;;7.10;;
12332;SDS011;6232;48.094;11.288;2023-04-09T15:16:35;7.97;;;7.00;;
12332;SDS011;6232;48.094;11.288;2023-04-09T15:19:21;7.20;;;6.50;;
12332;SDS011;6232;48.094;11.288;2023-04-09T15:22:07;6.83;;;6.13;;
12332;SDS011;6232;48.094;11.288;2023-04-09T15:24:52;8.60;;;7.70;;
12332;SDS011;6232;48.094;11.288;2023-04-09T15:27:38;8.97;;;7.53;;
12332;SDS011;6232;48.094;11.288;2023-04-09T15:30:23;8.70;;;7.90;;
12332;SDS011;6232;48.094;11.288;2023-04-09T15:33:09;9.47;;;8.07;;
12332;SDS011;6232;48.094;11.288;2023-04-09T15:35:54;8.47;;;7.63;;
12332;SDS011;6232;48.094;11.288;2023-04-09T15:38:40;7.90;;;6.57;;
12332;SDS011;6232;48.094;11.288;2023-04-09T15:41:26;8.00;;;6.20;;
12332;SDS011;6232;48.094;11.288;2023-04-09T15:44:11;8.07;;;7.27;;
12332;SDS011;6232;48.094;11.288;2023-04-09T15:46:57;9.20;;;7.63;;
12332;SDS011;6232;48.094;11.288;2023-04-09T15:49:42;8.40;;;7.40;;
12332;SDS011;6232;48.094;11.288;2023-04-09T15:52:28;8.93;;;6.90;;
12332;SDS011;6232;48.094;11.288;2023-04-09T15:55:13;9.60;;;7.90;;
12332;SDS011;6232;48.094;11.288;2023-04-09T15:57:59;10.87;;;7.93;;
12332;SDS011;6232;48.094;11.288;2023-04-09T16:00:45;8.90;;;7.40;;
12332;SDS011;6232;48.094;11.288;2023-04-09T16:03:10;9.30;;;7.63;;
12332;SDS011;6232;48.094;11.288;2023-04-09T16:05:42;10.33;;;8.23;;
12332;SDS011;6232;48.094;11.288;2023-04-09T16:08:07;11.73;;;8.50;;
12332;SDS011;6232;48.094;11.288;2023-04-09T16:10:33;11.70;;;8.67;;
12332;SDS011;6232;48.094;11.288;2023-04-09T16:12:58;11.17;;;8.87;;
12332;SDS011;6232;48.094;11.288;2023-04-09T16:15:24;11.00;;;9.13;;
12332;SDS011;6232;48.094;11.288;2023-04-09T16:17:49;9.37;;;7.23;;
12332;SDS011;6232;48.094;11.288;2023-04-09T16:20:15;12.00;;;7.33;;
12332;SDS011;6232;48.094;11.288;2023-04-09T16:22:40;7.60;;;6.63;;
12332;SDS011;6232;48.094;11.288;2023-04-09T16:25:06;12.90;;;8.53;;
12332;SDS011;6232;48.094;11.288;2023-04-09T16:27:31;13.87;;;8.73;;
12332;SDS011;6232;48.094;11.288;2023-04-09T16:29:56;10.43;;;8.33;;
12332;SDS011;6232;48.094;11.288;2023-04-09T16:32:22;10.27;;;7.90;;
12332;SDS011;6232;48.094;11.288;2023-04-09T16:35:06;10.60;;;8.10;;
12332;SDS011;6232;48.094;11.288;2023-04-09T16:37:51;10.87;;;7.93;;
12332;SDS011;6232;48.094;11.288;2023-04-09T16:40:37;9.60;;;7.10;;